Plymouth, MA

5:35 PM EDT on March 26, 2017 (GMT -0400)
Bridge Gate | | Change Station

Elev 177 ft 41.88 °N, 70.60 °W | Updated 14 minutes ago

Overcast
Overcast
41.2 °F
Feels Like 41 °F
N
1.9
Wind Variable Wind from West
Gusts 3.7 mph

Today
High -- | Low -- °F
--% Chance of Precip.
Yesterday
High -- | Low -- °F
Precip. -- in
Pressure 30.49 in
Visibility 10.0 miles
Clouds Overcast 5500 ft
Windchill 41 °F
Dew Point 31 °F
Humidity 66%
Rainfall Not available.
Snow Depth Not available.
6:35 AM 7:01 PM
Waning Crescent, 2% visible
METAR KPYM 262052Z AUTO 10008KT 10SM OVC055 03/M03 A3048 RMK AO2 SLP325 60000 T00331033 58011 TSNO
Pressure 30.49 in
Visibility 10.0 miles
Clouds Overcast 5500 ft
Windchill 41 °F
Dew Point 31 °F
Humidity 66%
Rainfall Not available.
Snow Depth Not available.
6:35 AM 7:01 PM
Waning Crescent, 2% visible
METAR KPYM 262052Z AUTO 10008KT 10SM OVC055 03/M03 A3048 RMK AO2 SLP325 60000 T00331033 58011 TSNO

Get Severe Weather Alerts

Thanks for signing up!

Be on the lookout for a verification email in your inbox.

You'll start receiving the daily forecast at 8 AM.

×

10-Day Weather Forecast

Almanac

Astronomy

Mar. 26, 2017 Rise Set
Actual Time
Civil Twilight
Nautical Twilight
Astronomical Twilight
Moon
Length of Visible Light
Length of Day
Tomorrow will be .
, % of the Moon is Illuminated

Today's Extremes

State Highs State Lows

Community

WunderPhotos

Upload Photos

1,962,540 photos uploaded!

WunderBlog® & News

Nearby

Air Quality

  Air Quality AQ Index Pollutant
Not available.

Snow Depth

Station Depth Elevation

Earthquake Activity

City Distance Mag. Time & Date
Minimum magnitude displayed is 2.5.

Earthquake Activity

City Distance Mag. Time & Date
Minimum magnitude displayed is 2.5.

Coastal Water Temperatures

Place Temperature

Stations

Nearby Weather Stations

Station Location Temp. Windchill Dew Point Humidity Wind Precip. Elev Updated Type
                   

Watches & Warnings

There are currently no watches in effect.